Time;durP1;ratioP1;P1;durP2;ratioP2;P2;SDS_P1;SDS_P2;PMS_P1;PMS_P2;Temp;Humidity;BMP_temperature;BMP_pressure;BME280_temperature;BME280_humidity;BME280_pressure;Samples;Min_cycle;Max_cycle;Signal;HPM_P1;HPM_P2
2021/12/28 00:02:18;;;;;;;4.67;2.87;;;6.50;99.90;;;;;;4995101;28;20184;-36
2021/12/28 00:04:44;;;;;;;7.67;3.77;;;6.50;99.90;;;;;;4995690;28;20183;-37
2021/12/28 00:07:10;;;;;;;6.93;3.23;;;6.50;99.90;;;;;;5013135;28;20221;-37
2021/12/28 00:09:35;;;;;;;8.00;2.47;;;6.50;99.90;;;;;;5011327;28;20219;-37
2021/12/28 00:12:01;;;;;;;2.67;1.73;;;6.40;99.90;;;;;;4995587;28;20183;-37
2021/12/28 00:14:35;;;;;;;5.60;2.03;;;6.40;99.90;;;;;;5011692;28;20202;-37
2021/12/28 00:19:45;;;;;;;2.97;1.50;;;6.30;99.90;;;;;;5012677;28;20205;-36
2021/12/28 00:22:10;;;;;;;7.07;1.43;;;6.30;99.90;;;;;;4994998;28;20179;-36
2021/12/28 00:24:36;;;;;;;5.27;1.50;;;6.30;99.90;;;;;;4995045;28;20635;-37
2021/12/28 00:27:03;;;;;;;5.17;1.40;;;6.30;99.90;;;;;;5011584;28;20189;-36
2021/12/28 00:29:29;;;;;;;3.07;1.50;;;6.30;99.90;;;;;;4994677;28;20214;-37
2021/12/28 00:31:55;;;;;;;3.43;1.30;;;6.30;99.90;;;;;;5011346;28;20185;-37
2021/12/28 00:34:21;;;;;;;4.30;1.50;;;6.30;99.90;;;;;;5011545;28;20210;-36
2021/12/28 00:36:47;;;;;;;4.17;1.60;;;6.30;99.90;;;;;;5011398;28;20234;-36
2021/12/28 00:39:13;;;;;;;4.93;1.63;;;6.30;99.90;;;;;;4994735;28;20221;-37
2021/12/28 00:41:39;;;;;;;4.60;1.80;;;6.30;99.90;;;;;;5012532;28;20262;-37
2021/12/28 00:44:05;;;;;;;3.03;1.63;;;6.30;99.90;;;;;;4994862;28;20233;-37
2021/12/28 00:46:30;;;;;;;4.33;1.50;;;6.30;99.90;;;;;;4995097;28;20186;-37
2021/12/28 00:48:56;;;;;;;7.23;1.90;;;6.30;99.90;;;;;;4994667;28;20207;-36
2021/12/28 00:51:22;;;;;;;4.47;1.60;;;6.30;99.90;;;;;;5011268;28;20211;-35
2021/12/28 00:53:48;;;;;;;4.60;1.73;;;6.30;99.90;;;;;;4994615;28;20228;-37
2021/12/28 00:56:14;;;;;;;7.93;2.10;;;6.20;99.90;;;;;;5011265;28;20508;-36
2021/12/28 00:58:39;;;;;;;6.30;1.70;;;6.20;99.90;;;;;;5010572;28;20230;-36
2021/12/28 01:01:06;;;;;;;4.53;2.00;;;6.20;99.90;;;;;;5010982;28;20216;-36
2021/12/28 01:03:37;;;;;;;9.17;2.10;;;6.20;99.90;;;;;;4994520;28;20615;-36
2021/12/28 01:06:04;;;;;;;4.60;1.80;;;6.10;99.90;;;;;;5011093;28;20179;-36
2021/12/28 01:08:31;;;;;;;6.60;1.93;;;6.00;99.90;;;;;;5011734;28;20667;-37
2021/12/28 01:10:58;;;;;;;5.13;1.80;;;6.00;99.90;;;;;;4994535;28;20182;-36
2021/12/28 01:13:25;;;;;;;5.30;1.70;;;6.00;99.90;;;;;;4994666;28;20187;-37
2021/12/28 01:15:51;;;;;;;9.23;2.10;;;6.00;99.90;;;;;;5011104;28;20219;-37
2021/12/28 01:18:19;;;;;;;5.40;1.67;;;6.00;99.90;;;;;;4994091;28;20674;-36
2021/12/28 01:20:45;;;;;;;7.10;2.00;;;5.90;99.90;;;;;;4994559;28;20175;-35
2021/12/28 01:23:11;;;;;;;8.10;2.03;;;6.00;99.90;;;;;;5010992;28;20184;-36
2021/12/28 01:25:38;;;;;;;6.50;1.80;;;6.00;99.90;;;;;;5011900;28;20694;-47
2021/12/28 01:28:05;;;;;;;6.63;2.20;;;6.00;99.90;;;;;;5010407;28;20224;-47
2021/12/28 01:30:32;;;;;;;5.70;1.83;;;5.90;99.90;;;;;;4994116;28;20191;-48
2021/12/28 01:32:59;;;;;;;6.80;2.20;;;5.90;99.90;;;;;;5011865;28;20292;-48
2021/12/28 01:35:27;;;;;;;3.97;1.50;;;5.80;99.90;;;;;;4997836;28;20228;-47
2021/12/28 01:37:53;;;;;;;3.60;1.50;;;5.70;99.90;;;;;;4998193;28;20185;-48
2021/12/28 01:40:24;;;;;;;5.67;1.70;;;5.70;99.90;;;;;;4997521;28;20205;-48
2021/12/28 01:42:58;;;;;;;3.83;2.07;;;5.70;99.90;;;;;;5014592;28;20182;-47
2021/12/28 01:45:52;;;;;;;4.90;1.73;;;5.60;99.90;;;;;;4998231;28;20185;-47
2021/12/28 01:48:28;;;;;;;6.00;1.93;;;5.60;99.90;;;;;;5013332;28;20190;-47
2021/12/28 01:50:58;;;;;;;7.00;2.00;;;5.60;99.90;;;;;;4998008;28;20672;-47
2021/12/28 01:53:25;;;;;;;4.43;2.30;;;5.50;99.90;;;;;;5015445;28;20719;-48
2021/12/28 01:55:54;;;;;;;5.37;2.40;;;5.50;99.90;;;;;;4998005;28;20221;-48
2021/12/28 01:58:21;;;;;;;9.10;2.60;;;5.50;99.90;;;;;;5014137;28;20178;-47
2021/12/28 02:00:49;;;;;;;4.60;2.97;;;5.50;99.90;;;;;;4997828;28;20194;-47
2021/12/28 02:03:17;;;;;;;7.37;2.93;;;5.50;99.90;;;;;;5014058;28;20190;-47
2021/12/28 02:05:43;;;;;;;4.43;3.10;;;5.50;99.90;;;;;;5014010;28;20190;-47
2021/12/28 02:08:12;;;;;;;6.53;3.13;;;5.50;99.90;;;;;;5013813;28;20189;-47
2021/12/28 02:10:39;;;;;;;5.67;3.90;;;5.40;99.90;;;;;;4997552;28;20225;-47
2021/12/28 02:13:06;;;;;;;6.80;3.40;;;5.40;99.90;;;;;;5013929;28;20208;-46
2021/12/28 02:15:34;;;;;;;5.47;2.97;;;5.40;99.90;;;;;;5014042;28;20209;-47
2021/12/28 02:17:59;;;;;;;6.37;4.23;;;5.40;99.90;;;;;;5013889;28;20202;-46
2021/12/28 02:20:25;;;;;;;4.77;3.57;;;5.30;99.90;;;;;;4997600;28;20242;-47
2021/12/28 02:22:51;;;;;;;5.33;3.00;;;5.30;99.90;;;;;;5013760;28;20186;-47
2021/12/28 02:25:18;;;;;;;3.90;2.63;;;5.30;99.90;;;;;;4997372;28;20182;-47
2021/12/28 02:27:45;;;;;;;8.07;2.50;;;5.20;99.90;;;;;;5013521;28;20657;-47
2021/12/28 02:30:16;;;;;;;7.00;2.70;;;5.10;99.90;;;;;;4997122;28;20292;-47
2021/12/28 02:32:44;;;;;;;4.20;2.50;;;5.10;99.90;;;;;;4997281;28;20569;-47
2021/12/28 02:35:16;;;;;;;4.67;2.60;;;5.10;99.90;;;;;;5013609;28;20219;-47
2021/12/28 02:37:43;;;;;;;5.77;2.70;;;5.10;99.90;;;;;;5013657;28;20189;-47
2021/12/28 02:40:14;;;;;;;5.10;2.63;;;5.10;99.90;;;;;;4997147;28;20203;-47
2021/12/28 02:42:40;;;;;;;5.20;2.13;;;5.10;99.90;;;;;;5013317;28;20237;-47
2021/12/28 02:45:18;;;;;;;5.87;2.60;;;5.10;99.90;;;;;;5013294;28;20192;-46
2021/12/28 02:47:45;;;;;;;4.77;2.43;;;5.20;99.90;;;;;;5013216;28;20182;-47
2021/12/28 02:50:25;;;;;;;5.77;2.40;;;5.20;99.90;;;;;;4996918;28;20202;-47
2021/12/28 02:52:52;;;;;;;6.67;2.87;;;5.20;99.90;;;;;;5014697;28;20206;-47
2021/12/28 02:55:20;;;;;;;4.57;2.67;;;5.20;99.90;;;;;;4996720;28;20211;-47
2021/12/28 02:57:49;;;;;;;5.80;2.80;;;5.20;99.90;;;;;;4996739;28;20174;-47
2021/12/28 03:00:33;;;;;;;7.37;2.60;;;5.20;99.90;;;;;;4996747;28;20684;-46
2021/12/28 03:03:03;;;;;;;7.67;2.60;;;5.20;99.90;;;;;;4996759;28;20182;-47
2021/12/28 03:05:29;;;;;;;5.23;2.30;;;5.20;99.90;;;;;;5013071;28;20186;-47
2021/12/28 03:07:55;;;;;;;10.10;3.00;;;5.20;99.90;;;;;;4996272;28;20234;-47
2021/12/28 03:10:21;;;;;;;6.57;2.70;;;5.20;99.90;;;;;;4996419;28;20209;-47
2021/12/28 03:12:46;;;;;;;7.10;2.80;;;5.20;99.90;;;;;;5012937;28;20631;-47
2021/12/28 03:15:13;;;;;;;4.67;2.40;;;5.20;99.90;;;;;;5012194;28;20218;-47
2021/12/28 03:17:41;;;;;;;7.07;2.60;;;5.20;99.90;;;;;;5012819;28;20177;-47
2021/12/28 03:20:11;;;;;;;5.00;2.00;;;5.20;99.90;;;;;;5012704;28;20213;-47
2021/12/28 03:22:37;;;;;;;6.50;2.57;;;5.20;99.90;;;;;;5012610;28;20186;-47
2021/12/28 03:25:05;;;;;;;6.67;2.70;;;5.20;99.90;;;;;;4996347;28;20181;-47
2021/12/28 03:27:31;;;;;;;5.60;2.43;;;5.20;99.90;;;;;;4996104;28;20225;-47
2021/12/28 03:29:57;;;;;;;9.13;2.23;;;5.20;99.90;;;;;;5012387;28;20300;-47
2021/12/28 03:32:23;;;;;;;4.10;2.10;;;5.20;99.90;;;;;;5012109;28;20213;-47
2021/12/28 03:34:49;;;;;;;2.97;2.17;;;5.10;99.90;;;;;;5012421;28;20296;-47
2021/12/28 03:37:15;;;;;;;4.07;2.40;;;5.20;99.90;;;;;;4996149;28;20186;-47
2021/12/28 03:39:41;;;;;;;7.77;2.57;;;5.20;99.90;;;;;;5012274;28;20725;-47
2021/12/28 03:42:08;;;;;;;6.40;2.27;;;5.20;99.90;;;;;;4996006;28;20186;-47
2021/12/28 03:44:35;;;;;;;3.47;1.70;;;5.20;99.90;;;;;;5012367;28;20205;-47
2021/12/28 03:47:02;;;;;;;9.33;2.57;;;5.20;99.90;;;;;;5013644;28;20177;-47
2021/12/28 03:49:28;;;;;;;7.90;2.57;;;5.30;99.90;;;;;;5011638;28;20203;-46
2021/12/28 03:51:54;;;;;;;9.17;2.50;;;5.30;99.90;;;;;;5012389;28;20193;-47
2021/12/28 03:54:19;;;;;;;6.77;2.50;;;5.30;99.90;;;;;;5012295;28;20206;-47
2021/12/28 03:56:45;;;;;;;4.73;2.10;;;5.30;99.90;;;;;;5011529;28;20219;-47
2021/12/28 03:59:11;;;;;;;8.10;2.83;;;5.40;99.90;;;;;;5011671;28;20211;-47
2021/12/28 04:01:37;;;;;;;7.53;2.63;;;5.50;99.90;;;;;;5011925;28;20182;-46
2021/12/28 04:04:03;;;;;;;6.10;2.63;;;5.40;99.90;;;;;;5011896;28;20175;-46
2021/12/28 04:06:30;;;;;;;8.10;3.00;;;5.50;99.90;;;;;;4995600;28;20238;-47
2021/12/28 04:08:58;;;;;;;5.13;2.57;;;5.40;99.90;;;;;;5011473;28;20344;-47
2021/12/28 04:11:25;;;;;;;7.93;3.57;;;5.40;99.90;;;;;;4995426;28;20233;-47
2021/12/28 04:13:58;;;;;;;4.63;2.37;;;5.30;99.90;;;;;;4995370;28;20194;-47
2021/12/28 04:16:24;;;;;;;3.83;2.73;;;5.40;99.90;;;;;;5011692;28;20185;-47
2021/12/28 04:18:51;;;;;;;7.13;2.60;;;5.40;99.90;;;;;;4994990;28;20206;-47
2021/12/28 04:21:17;;;;;;;7.63;2.63;;;5.40;99.90;;;;;;5011328;28;20174;-46
2021/12/28 04:23:44;;;;;;;5.73;2.63;;;5.30;99.90;;;;;;4995356;28;20269;-47
2021/12/28 04:26:10;;;;;;;5.60;2.77;;;5.30;99.90;;;;;;5011626;28;20216;-47
2021/12/28 04:28:36;;;;;;;7.13;2.80;;;5.40;99.90;;;;;;5011210;28;20216;-46
2021/12/28 04:31:02;;;;;;;5.57;2.77;;;5.30;99.90;;;;;;5011049;28;20194;-46
2021/12/28 04:33:28;;;;;;;6.47;2.97;;;5.40;99.90;;;;;;4994966;28;20182;-47
2021/12/28 04:35:54;;;;;;;8.47;3.60;;;5.30;99.90;;;;;;4995187;28;20257;-47
2021/12/28 04:38:20;;;;;;;9.03;3.33;;;5.40;99.90;;;;;;5010410;28;20185;-47
2021/12/28 04:40:46;;;;;;;4.63;2.70;;;5.30;99.90;;;;;;5011332;28;20184;-47
2021/12/28 04:43:13;;;;;;;6.57;2.97;;;5.30;99.90;;;;;;5011386;28;20173;-47
2021/12/28 04:45:39;;;;;;;11.77;3.53;;;5.30;99.90;;;;;;4994752;28;20198;-47
2021/12/28 04:48:06;;;;;;;6.83;3.70;;;5.30;99.90;;;;;;5012461;28;20182;-47
2021/12/28 04:50:38;;;;;;;10.60;3.23;;;5.30;99.90;;;;;;4995007;28;20187;-47
2021/12/28 04:53:09;;;;;;;5.37;3.20;;;5.30;99.90;;;;;;5011034;28;20212;-47
2021/12/28 04:55:37;;;;;;;9.87;3.43;;;5.30;99.90;;;;;;4994666;28;20202;-47
2021/12/28 04:58:03;;;;;;;6.87;3.00;;;5.30;99.90;;;;;;5011055;28;20180;-47
2021/12/28 05:00:29;;;;;;;7.80;4.20;;;5.30;99.90;;;;;;5007876;28;20268;-46
2021/12/28 05:02:56;;;;;;;9.97;7.80;;;5.30;99.90;;;;;;5012557;28;20244;-47
2021/12/28 05:05:22;;;;;;;8.37;3.93;;;5.30;99.90;;;;;;5013536;28;20231;-47
2021/12/28 05:07:48;;;;;;;8.20;4.10;;;5.30;99.90;;;;;;5013224;28;20181;-47
2021/12/28 05:10:14;;;;;;;7.60;3.43;;;5.40;99.90;;;;;;5014047;28;20217;-47
2021/12/28 05:12:40;;;;;;;6.93;3.13;;;5.40;99.90;;;;;;5014329;28;20242;-47
2021/12/28 05:15:07;;;;;;;10.40;2.90;;;5.50;99.90;;;;;;5030447;28;20292;-47
2021/12/28 05:17:33;;;;;;;10.47;2.77;;;5.50;99.90;;;;;;5013901;28;20182;-47
2021/12/28 05:19:59;;;;;;;7.83;2.37;;;5.50;99.90;;;;;;5029073;28;20209;-47
2021/12/28 05:22:25;;;;;;;8.83;3.10;;;5.60;99.90;;;;;;5013837;28;20185;-47
2021/12/28 05:24:51;;;;;;;8.97;2.40;;;5.60;99.90;;;;;;5030388;28;20183;-47
2021/12/28 05:27:17;;;;;;;8.27;4.00;;;5.60;99.90;;;;;;5014135;28;20181;-47
2021/12/28 05:29:43;;;;;;;4.80;2.67;;;5.60;99.90;;;;;;5029994;28;20212;-47
2021/12/28 05:32:09;;;;;;;9.53;3.13;;;5.60;99.90;;;;;;5014318;28;20189;-47
2021/12/28 05:34:35;;;;;;;5.83;2.80;;;5.50;99.90;;;;;;5013586;28;20233;-47
2021/12/28 05:37:01;;;;;;;5.97;3.20;;;5.50;99.90;;;;;;5031591;28;20182;-47
2021/12/28 05:39:27;;;;;;;5.43;2.90;;;5.50;99.90;;;;;;5013496;28;20215;-47
2021/12/28 05:41:52;;;;;;;9.63;5.47;;;5.50;99.90;;;;;;5030174;28;20217;-47
2021/12/28 05:44:18;;;;;;;5.33;3.30;;;5.50;99.90;;;;;;5030184;28;20177;-47
2021/12/28 05:46:45;;;;;;;7.73;3.67;;;5.50;99.90;;;;;;5013598;28;20185;-47
2021/12/28 05:49:13;;;;;;;6.57;2.73;;;5.50;99.90;;;;;;5029818;28;20361;-47
2021/12/28 05:51:39;;;;;;;6.37;2.50;;;5.50;99.90;;;;;;5030026;28;20185;-47
2021/12/28 05:54:05;;;;;;;6.80;2.23;;;5.50;99.90;;;;;;5013583;28;20184;-47
2021/12/28 05:56:31;;;;;;;3.80;2.33;;;5.60;99.90;;;;;;5013523;28;20185;-47
2021/12/28 05:58:57;;;;;;;5.13;2.30;;;5.60;99.90;;;;;;5029900;28;20200;-47
2021/12/28 06:01:23;;;;;;;5.80;2.43;;;5.70;99.90;;;;;;5013752;28;20242;-47
2021/12/28 06:03:49;;;;;;;4.53;2.43;;;5.90;99.90;;;;;;5013336;28;20189;-47
2021/12/28 06:06:15;;;;;;;3.10;1.60;;;6.00;99.90;;;;;;5029960;28;20188;-47
2021/12/28 06:08:41;;;;;;;2.70;1.40;;;6.20;99.90;;;;;;5029636;28;20199;-47
2021/12/28 06:11:12;;;;;;;2.70;1.47;;;6.60;99.90;;;;;;5013458;28;20714;-47
2021/12/28 06:13:40;;;;;;;2.47;1.50;;;6.90;99.90;;;;;;5013520;28;20178;-47
2021/12/28 06:16:07;;;;;;;1.73;1.23;;;7.20;99.90;;;;;;5013400;28;20214;-47
2021/12/28 06:18:33;;;;;;;2.03;1.20;;;7.40;99.90;;;;;;5008661;28;20286;-47
2021/12/28 06:20:59;;;;;;;1.60;1.03;;;7.60;99.90;;;;;;5012799;28;20177;-47
2021/12/28 06:23:25;;;;;;;1.60;0.80;;;7.70;99.90;;;;;;5013747;28;20179;-47
2021/12/28 06:25:51;;;;;;;1.50;1.00;;;7.70;99.90;;;;;;4997185;28;20205;-47
2021/12/28 06:28:17;;;;;;;1.30;0.90;;;7.80;99.90;;;;;;4997000;28;20180;-47
2021/12/28 06:30:43;;;;;;;0.97;0.80;;;7.80;99.90;;;;;;4997404;28;20587;-47
2021/12/28 06:33:09;;;;;;;1.30;0.93;;;7.90;99.90;;;;;;4997285;28;20229;-47
2021/12/28 06:35:35;;;;;;;1.43;0.93;;;8.00;99.90;;;;;;5013666;28;20214;-47
2021/12/28 06:38:01;;;;;;;1.83;1.00;;;8.00;99.90;;;;;;5013348;28;20179;-47
2021/12/28 06:40:27;;;;;;;1.10;1.00;;;8.00;99.90;;;;;;4996895;28;20199;-47
2021/12/28 06:42:53;;;;;;;1.90;0.67;;;8.00;99.90;;;;;;4997151;28;20585;-47
2021/12/28 06:45:19;;;;;;;1.27;0.80;;;8.00;99.90;;;;;;5013362;28;20186;-47
2021/12/28 06:47:45;;;;;;;0.90;0.80;;;8.00;99.90;;;;;;5013245;28;20176;-47
2021/12/28 06:50:12;;;;;;;2.03;1.00;;;8.00;99.90;;;;;;5012601;28;20210;-47
2021/12/28 06:52:38;;;;;;;2.23;0.77;;;8.10;99.90;;;;;;5013313;28;20191;-47
2021/12/28 06:55:06;;;;;;;1.40;0.60;;;8.20;99.90;;;;;;5013126;28;20288;-47
2021/12/28 06:57:33;;;;;;;1.40;0.93;;;8.20;99.90;;;;;;5025203;28;20336;-47
2021/12/28 06:59:59;;;;;;;1.53;0.70;;;8.30;99.90;;;;;;5016100;28;20307;-47
2021/12/28 07:02:24;;;;;;;0.83;0.67;;;8.30;99.90;;;;;;5008424;28;20281;-47
2021/12/28 07:04:52;;;;;;;1.07;0.70;;;8.30;99.90;;;;;;5007256;28;20179;-47
2021/12/28 07:07:19;;;;;;;0.80;0.70;;;8.30;99.90;;;;;;5007204;28;20179;-47
2021/12/28 07:09:45;;;;;;;0.80;0.70;;;8.30;99.90;;;;;;5007672;28;20221;-47
2021/12/28 07:12:11;;;;;;;0.90;0.70;;;8.30;99.90;;;;;;5011669;28;20203;-47
2021/12/28 07:14:38;;;;;;;1.63;0.60;;;8.30;99.90;;;;;;5010567;28;20237;-47
2021/12/28 07:17:04;;;;;;;0.60;0.60;;;8.30;99.90;;;;;;5009078;28;20206;-47
2021/12/28 07:19:31;;;;;;;0.83;0.80;;;8.20;99.90;;;;;;5028662;28;20208;-47
2021/12/28 07:21:57;;;;;;;0.97;0.53;;;8.20;99.90;;;;;;5022666;28;20175;-47
2021/12/28 07:24:24;;;;;;;0.80;0.70;;;8.20;99.90;;;;;;5006654;28;20182;-47
2021/12/28 07:26:50;;;;;;;0.67;0.57;;;8.20;99.90;;;;;;5022801;28;20178;-47
2021/12/28 07:29:16;;;;;;;2.27;0.70;;;8.20;99.90;;;;;;5005312;28;20715;-47
2021/12/28 07:31:42;;;;;;;1.33;0.70;;;8.20;99.90;;;;;;5005542;28;20610;-47
2021/12/28 07:34:08;;;;;;;2.77;1.37;;;8.20;99.90;;;;;;5006781;28;20175;-47
2021/12/28 07:36:34;;;;;;;1.70;1.17;;;8.20;99.90;;;;;;5026650;28;20189;-47
2021/12/28 07:39:00;;;;;;;2.77;1.13;;;8.30;99.90;;;;;;5015536;28;20187;-47
2021/12/28 07:41:26;;;;;;;2.33;1.90;;;8.20;99.90;;;;;;5031858;28;20191;-47
2021/12/28 07:43:52;;;;;;;1.60;1.00;;;8.30;99.90;;;;;;5015410;28;20189;-47
2021/12/28 07:46:18;;;;;;;1.57;1.07;;;8.30;99.90;;;;;;5033199;28;20170;-47
2021/12/28 07:48:45;;;;;;;2.13;1.10;;;8.30;99.90;;;;;;5031420;28;20224;-47
2021/12/28 07:51:11;;;;;;;1.87;1.17;;;8.30;99.90;;;;;;5015302;28;20218;-47
2021/12/28 07:53:37;;;;;;;1.10;0.70;;;8.30;99.90;;;;;;5015185;28;20202;-47
2021/12/28 07:56:03;;;;;;;1.00;0.70;;;8.30;99.90;;;;;;5031682;28;20210;-48
2021/12/28 07:58:30;;;;;;;1.13;0.77;;;8.40;99.90;;;;;;5014914;28;20198;-47
2021/12/28 08:00:57;;;;;;;1.27;0.87;;;8.40;99.90;;;;;;4997278;28;20191;-47
2021/12/28 08:03:24;;;;;;;1.70;0.90;;;8.40;99.90;;;;;;5011869;28;20179;-47
2021/12/28 08:05:51;;;;;;;1.10;0.80;;;8.40;99.90;;;;;;5011820;28;20274;-47
2021/12/28 08:08:18;;;;;;;0.80;0.80;;;8.40;99.90;;;;;;5011444;28;20191;-47
2021/12/28 08:10:44;;;;;;;1.40;1.13;;;8.40;99.90;;;;;;5011492;28;20191;-47
2021/12/28 08:13:10;;;;;;;3.50;2.30;;;8.40;99.90;;;;;;5011537;28;20179;-47
2021/12/28 08:15:36;;;;;;;3.27;1.50;;;8.40;99.90;;;;;;5011593;28;20260;-47
2021/12/28 08:18:04;;;;;;;1.57;1.03;;;8.40;99.90;;;;;;5018836;28;20197;-47
2021/12/28 08:20:31;;;;;;;2.53;1.50;;;8.50;99.90;;;;;;5022115;28;20182;-47
2021/12/28 08:22:57;;;;;;;1.50;1.00;;;8.50;99.90;;;;;;5020688;28;20179;-47
2021/12/28 08:25:24;;;;;;;1.20;0.77;;;8.60;99.90;;;;;;5004705;28;20187;-47
2021/12/28 08:27:51;;;;;;;1.00;0.90;;;8.60;99.90;;;;;;5025063;28;20187;-47
2021/12/28 08:30:18;;;;;;;0.60;0.60;;;8.60;99.90;;;;;;5001896;28;20206;-47
2021/12/28 08:32:45;;;;;;;1.70;0.70;;;8.70;99.90;;;;;;5000856;28;20640;-47
2021/12/28 08:35:12;;;;;;;0.93;0.80;;;8.70;99.90;;;;;;5012592;28;20207;-47
2021/12/28 08:37:38;;;;;;;1.37;1.10;;;8.70;99.90;;;;;;5005735;28;20229;-47
2021/12/28 08:40:06;;;;;;;1.93;1.37;;;8.70;99.90;;;;;;5021992;28;20199;-47
2021/12/28 08:42:32;;;;;;;1.53;1.10;;;8.70;99.90;;;;;;5003904;28;20171;-47
2021/12/28 08:44:58;;;;;;;1.00;0.90;;;8.80;99.90;;;;;;5030224;28;20182;-47
2021/12/28 08:47:28;;;;;;;1.67;1.00;;;8.80;99.90;;;;;;5013594;28;20217;-47
2021/12/28 08:49:55;;;;;;;0.80;0.73;;;8.80;99.90;;;;;;5030633;28;20233;-47
2021/12/28 08:52:21;;;;;;;0.80;0.80;;;8.90;99.90;;;;;;5029566;28;20182;-47
2021/12/28 08:54:48;;;;;;;0.83;0.80;;;8.90;99.90;;;;;;5013694;28;20202;-47
2021/12/28 08:57:14;;;;;;;0.70;0.70;;;9.00;99.90;;;;;;5014226;28;20197;-47
2021/12/28 08:59:41;;;;;;;1.03;0.73;;;9.00;99.90;;;;;;5005404;28;20215;-47
2021/12/28 09:02:08;;;;;;;1.63;0.83;;;9.00;99.90;;;;;;5010670;28;20822;-47
2021/12/28 09:04:36;;;;;;;1.10;0.70;;;9.00;99.90;;;;;;5013391;28;20563;-47
2021/12/28 09:07:02;;;;;;;0.73;0.67;;;9.10;99.90;;;;;;5002640;28;20188;-47
2021/12/28 09:09:28;;;;;;;0.93;0.80;;;9.10;99.90;;;;;;5004158;28;20252;-47
2021/12/28 09:11:55;;;;;;;1.40;1.20;;;9.10;99.90;;;;;;5020186;28;20171;-47
2021/12/28 09:14:21;;;;;;;2.50;0.90;;;9.10;99.90;;;;;;5018982;28;20267;-47
2021/12/28 09:16:47;;;;;;;0.90;0.80;;;9.10;99.90;;;;;;5005300;28;20233;-47
2021/12/28 09:19:14;;;;;;;0.90;0.77;;;9.10;99.90;;;;;;5016360;28;20227;-47
2021/12/28 09:21:40;;;;;;;0.80;0.80;;;9.10;99.90;;;;;;5019504;28;20183;-47
2021/12/28 09:24:07;;;;;;;0.70;0.70;;;9.10;99.90;;;;;;5004052;28;20182;-47
2021/12/28 09:26:34;;;;;;;1.10;0.80;;;9.10;99.90;;;;;;5007711;28;20179;-47
2021/12/28 09:29:03;;;;;;;1.10;0.90;;;9.10;99.90;;;;;;5020103;28;20202;-47
2021/12/28 09:31:29;;;;;;;1.30;0.80;;;9.10;99.90;;;;;;5009709;28;20178;-47
2021/12/28 09:33:55;;;;;;;0.77;0.60;;;9.00;99.90;;;;;;5018634;28;20178;-47
2021/12/28 09:36:21;;;;;;;1.10;0.90;;;9.10;99.90;;;;;;5007725;28;20205;-47
2021/12/28 09:38:47;;;;;;;0.57;0.50;;;9.10;99.90;;;;;;5008115;28;20203;-47
2021/12/28 09:41:14;;;;;;;0.70;0.60;;;9.10;99.90;;;;;;5016822;28;20175;-47
2021/12/28 09:43:41;;;;;;;0.63;0.63;;;9.10;99.90;;;;;;5017366;28;20260;-47
2021/12/28 09:46:07;;;;;;;0.87;0.60;;;9.10;99.90;;;;;;5014590;28;20179;-47
2021/12/28 09:48:34;;;;;;;0.57;0.57;;;9.10;99.90;;;;;;5018200;28;20242;-47
2021/12/28 09:51:00;;;;;;;0.70;0.70;;;9.10;99.90;;;;;;5020108;28;20199;-47
2021/12/28 09:53:27;;;;;;;2.23;0.90;;;9.10;99.90;;;;;;5021488;28;20187;-47
2021/12/28 09:55:53;;;;;;;1.13;0.80;;;9.20;99.90;;;;;;5021520;28;20221;-47
2021/12/28 09:58:19;;;;;;;2.43;1.10;;;9.20;99.90;;;;;;5023359;28;20176;-47
2021/12/28 10:00:45;;;;;;;0.60;0.60;;;9.30;99.90;;;;;;5013656;28;20236;-47
2021/12/28 10:03:12;;;;;;;1.30;0.57;;;9.30;99.90;;;;;;5024502;28;20206;-47
2021/12/28 10:05:38;;;;;;;0.80;0.80;;;9.40;99.90;;;;;;5006661;28;20278;-47
2021/12/28 10:08:06;;;;;;;0.90;0.90;;;9.50;99.90;;;;;;5016211;28;20182;-47
2021/12/28 10:10:36;;;;;;;0.80;0.60;;;9.60;99.90;;;;;;5010345;28;20218;-47
2021/12/28 10:13:07;;;;;;;0.80;0.70;;;9.80;99.90;;;;;;5010119;28;20206;-47
2021/12/28 10:15:37;;;;;;;0.93;0.70;;;9.90;99.90;;;;;;5006872;28;20207;-47
2021/12/28 10:18:07;;;;;;;1.07;0.80;;;9.90;99.90;;;;;;5018193;28;20187;-47
2021/12/28 10:20:47;;;;;;;0.90;0.80;;;10.00;99.90;;;;;;5002118;28;20194;-47
2021/12/28 10:23:17;;;;;;;1.33;0.90;;;10.00;99.90;;;;;;5003810;28;20180;-47
2021/12/28 10:25:47;;;;;;;1.40;1.20;;;10.00;99.90;;;;;;5027362;28;20212;-47
2021/12/28 10:28:17;;;;;;;1.10;0.60;;;10.00;99.90;;;;;;5010180;28;20188;-47
2021/12/28 10:30:50;;;;;;;0.93;0.70;;;10.10;99.90;;;;;;5027968;28;20192;-47
2021/12/28 10:33:25;;;;;;;1.10;0.70;;;10.10;99.90;;;;;;5019843;28;20176;-47
2021/12/28 10:35:59;;;;;;;0.63;0.60;;;10.20;99.90;;;;;;5003337;28;20207;-47
2021/12/28 10:38:32;;;;;;;0.50;0.50;;;10.30;99.90;;;;;;5013465;28;20206;-47
2021/12/28 10:41:05;;;;;;;1.20;1.10;;;10.40;99.90;;;;;;5023735;28;20181;-47
2021/12/28 10:43:38;;;;;;;0.77;0.63;;;10.40;99.90;;;;;;5021933;28;20283;-47
2021/12/28 10:46:05;;;;;;;0.63;0.47;;;10.50;99.90;;;;;;5013585;28;20560;-47
2021/12/28 10:48:38;;;;;;;0.60;0.60;;;10.60;99.90;;;;;;5016158;28;20257;-47
2021/12/28 10:51:09;;;;;;;1.97;0.60;;;10.60;99.90;;;;;;5016506;28;20186;-47
2021/12/28 10:56:28;;;;;;;0.63;0.50;;;10.60;99.90;;;;;;5033399;28;20231;-47
2021/12/28 10:58:54;;;;;;;0.73;0.70;;;10.70;99.90;;;;;;5022381;28;20206;-47
2021/12/28 11:01:34;;;;;;;1.97;0.60;;;10.70;99.90;;;;;;4996639;28;20246;-47
2021/12/28 11:04:07;;;;;;;0.70;0.70;;;10.70;99.90;;;;;;5012990;28;20245;-47
2021/12/28 11:06:38;;;;;;;1.57;0.70;;;10.80;99.90;;;;;;4995768;28;20192;-47
2021/12/28 11:09:14;;;;;;;1.33;0.77;;;11.00;99.90;;;;;;5023426;28;20216;-47
2021/12/28 11:11:41;;;;;;;0.60;0.60;;;11.00;99.90;;;;;;5029028;28;20319;-47
2021/12/28 11:14:10;;;;;;;0.87;0.70;;;11.10;99.90;;;;;;5032864;28;20187;-48
2021/12/28 11:16:37;;;;;;;1.10;0.70;;;11.10;99.90;;;;;;5015949;28;20188;-47
2021/12/28 11:19:08;;;;;;;0.70;0.70;;;11.20;99.90;;;;;;5012771;28;20206;-47
2021/12/28 11:21:38;;;;;;;3.00;1.00;;;11.20;99.90;;;;;;5012493;28;20260;-47
2021/12/28 11:24:14;;;;;;;0.87;0.80;;;11.30;99.90;;;;;;5029503;28;20194;-47
2021/12/28 11:26:46;;;;;;;0.90;0.70;;;11.50;99.90;;;;;;5028236;28;20189;-47
2021/12/28 11:29:18;;;;;;;1.23;0.90;;;11.60;99.90;;;;;;5011700;28;20202;-47
2021/12/28 11:31:50;;;;;;;1.60;1.40;;;11.70;99.90;;;;;;5012398;28;20175;-47
2021/12/28 11:34:25;;;;;;;2.50;1.93;;;11.60;99.90;;;;;;4996501;28;20210;-47
2021/12/28 11:37:01;;;;;;;1.13;1.03;;;11.60;99.90;;;;;;5006703;28;20181;-47
2021/12/28 11:39:29;;;;;;;1.23;1.10;;;11.60;99.90;;;;;;5028950;28;20201;-47
2021/12/28 11:41:57;;;;;;;0.70;0.70;;;11.60;99.90;;;;;;5007979;28;20182;-47
2021/12/28 11:44:24;;;;;;;3.50;2.03;;;11.50;99.90;;;;;;5020601;28;20186;-47
2021/12/28 11:46:53;;;;;;;3.20;1.10;;;11.60;99.90;;;;;;5010752;28;20238;-47
2021/12/28 11:49:24;;;;;;;1.97;0.90;;;11.60;99.90;;;;;;5014474;28;20251;-47
2021/12/28 11:51:51;;;;;;;2.23;1.57;;;11.60;99.90;;;;;;5017588;28;20267;-47
2021/12/28 11:54:18;;;;;;;1.53;1.10;;;11.60;99.90;;;;;;5018949;28;20202;-47
2021/12/28 11:56:50;;;;;;;2.27;2.00;;;11.60;99.90;;;;;;5022020;28;20183;-47
2021/12/28 11:59:19;;;;;;;2.50;2.03;;;11.60;99.90;;;;;;5011607;28;20214;-47
2021/12/28 12:01:47;;;;;;;1.00;0.80;;;11.70;99.90;;;;;;5022559;28;20232;-47
2021/12/28 12:04:34;;;;;;;0.73;0.60;;;11.70;99.90;;;;;;5016946;28;20213;-47
2021/12/28 12:07:17;;;;;;;1.13;0.90;;;11.80;99.90;;;;;;5013868;28;20273;-47
2021/12/28 12:09:49;;;;;;;0.70;0.67;;;11.80;99.90;;;;;;5015627;28;20209;-47
2021/12/28 12:12:16;;;;;;;0.60;0.60;;;11.90;99.90;;;;;;5008577;28;20252;-47
2021/12/28 12:14:58;;;;;;;1.00;0.80;;;11.90;99.90;;;;;;5010458;28;20293;-48
2021/12/28 12:17:43;;;;;;;0.60;0.60;;;11.90;99.90;;;;;;4994730;28;20190;-48
2021/12/28 12:20:22;;;;;;;0.70;0.70;;;11.90;99.90;;;;;;5013140;28;20199;-47
2021/12/28 12:23:04;;;;;;;0.57;0.53;;;11.90;99.90;;;;;;4995319;28;20179;-47
2021/12/28 12:25:32;;;;;;;1.17;0.87;;;12.00;99.90;;;;;;5011578;28;20269;-47
2021/12/28 12:28:05;;;;;;;0.60;0.60;;;12.00;99.90;;;;;;5011261;28;20190;-47
2021/12/28 12:30:34;;;;;;;0.83;0.50;;;12.00;99.90;;;;;;5012500;28;20201;-47
2021/12/28 12:33:09;;;;;;;0.50;0.50;;;12.00;99.90;;;;;;5011441;28;20248;-47
2021/12/28 12:35:55;;;;;;;1.53;0.50;;;11.90;99.90;;;;;;5011175;28;20209;-47
2021/12/28 12:38:24;;;;;;;1.67;0.80;;;11.90;99.90;;;;;;5011022;28;20249;-47
2021/12/28 12:40:59;;;;;;;0.60;0.60;;;11.90;99.90;;;;;;4994622;28;20186;-47
2021/12/28 12:43:39;;;;;;;0.53;0.43;;;11.90;99.90;;;;;;5010929;28;20185;-47
2021/12/28 12:46:10;;;;;;;1.37;0.67;;;11.80;99.90;;;;;;4994882;28;20274;-47
2021/12/28 12:48:36;;;;;;;0.43;0.43;;;11.80;99.90;;;;;;4994665;28;20224;-47
2021/12/28 12:53:56;;;;;;;1.20;0.77;;;11.70;99.90;;;;;;5010973;28;20191;-47
2021/12/28 12:56:31;;;;;;;0.60;0.60;;;11.70;99.90;;;;;;4994480;28;20296;-47
2021/12/28 12:59:02;;;;;;;0.83;0.50;;;11.70;99.90;;;;;;5010720;28;20230;-47
2021/12/28 13:01:33;;;;;;;0.93;0.40;;;11.70;99.90;;;;;;4994405;28;20174;-47
2021/12/28 13:04:00;;;;;;;0.50;0.50;;;11.70;99.90;;;;;;5010933;28;20218;-47
2021/12/28 13:06:41;;;;;;;0.97;0.60;;;11.60;99.90;;;;;;4994804;28;20187;-47
2021/12/28 13:09:15;;;;;;;1.13;0.60;;;11.60;99.90;;;;;;5010509;28;20214;-47